Terminal Aerodrome Forecast
Issued by NWS

Home | Current Version | Previous Version | Text Only | Print | Product List | Glossary On
Versions: 1 2 3 4 5 6 7 8 9 10 11 12 13 14 15 16 17 18 19 20 21 22 23 24 25 26 27 28 29 30 31 32
000
FTUS44 KLIX 191700 RRA
TAFHUM
TAF
KHUM 191740Z 1918/2018 04010G17KT 5SM -RA BR BKN005 OVC025
      TEMPO 1918/1920 2SM SHRA
     FM200400 06008KT 5SM SHRA OVC006
     FM200800 05006KT P6SM OVC006=

USA.gov is the U.S. government's official web portal to all federal, state and local government web resources and services.